Lavista, Nebraska
Current Conditions -  °F | °C
As of 10:15 AM on Monday 26 Jan 2015 (Local Time) from KMLE Reporting Station
Clear Clear  
Wind Chill: 41°   Ceiling: Unl
Heat Index: 44°   Visibility: 10mi
Dew Point: 33°   Wind: 6mph
Humidity: 67%   Direction: 310°NW
Pressure: 29.9"   Gusts: NA
Location:  41.166°N, 96.0444°W
Report Text: KMLE 261615Z AUTO 31005KT 10SM CLR 07/01 A2990 RMK AO2 T00660008
Loading
Personal Weather Stations






























Interactive Weather Map New forecast layout! Learn more

10-Day Weather Forecast

Advertisements
Track Severe Weather on mobile